Terminal Aerodrome Forecast
Issued by NWS Rapid City, SD

Home | Current Version | Previous Version | Text Only | Print | Product List | Glossary Off
Versions: 1 2 3 4 5 6 7 8 9 10 11 12 13

829
FTUS43 KUNR 172320
TAFRAP
TAF
KRAP 172320Z 1800/1824 34020G30KT P6SM VCTS SCT060CB BKN120
     FM180300 33016KT P6SM SCT120
     FM182200 VRB05KT P6SM SKC=

USA.gov is the U.S. government's official web portal to all federal, state and local government web resources and services.